sensor_id;sensor_type;location;lat;lon;timestamp;pressure;altitude;pressure_sealevel;temperature;humidity
58739;BME280;44512;53.046;18.604;2024-01-06T00:02:19;101126.77;;;0.02;63.48
58739;BME280;44512;53.046;18.604;2024-01-06T00:12:48;101138.13;;;0.04;63.65
58739;BME280;44512;53.046;18.604;2024-01-06T00:23:16;101127.48;;;0.04;63.92
58739;BME280;44512;53.046;18.604;2024-01-06T00:33:45;101118.29;;;0.08;64.05
58739;BME280;44512;53.046;18.604;2024-01-06T00:44:13;101133.16;;;0.10;64.33
58739;BME280;44512;53.046;18.604;2024-01-06T00:54:42;101125.07;;;0.12;64.49
58739;BME280;44512;53.046;18.604;2024-01-06T01:05:10;101137.55;;;0.00;64.87
58739;BME280;44512;53.046;18.604;2024-01-06T01:15:39;101133.78;;;0.03;65.10
58739;BME280;44512;53.046;18.604;2024-01-06T01:26:07;101130.02;;;-0.06;65.52
58739;BME280;44512;53.046;18.604;2024-01-06T01:36:35;101142.88;;;0.00;65.54
58739;BME280;44512;53.046;18.604;2024-01-06T01:47:05;101130.77;;;-0.04;65.60
58739;BME280;44512;53.046;18.604;2024-01-06T01:57:33;101141.64;;;-0.07;65.73
58739;BME280;44512;53.046;18.604;2024-01-06T02:08:01;101144.18;;;-0.17;65.85
58739;BME280;44512;53.046;18.604;2024-01-06T02:18:30;101150.74;;;-0.10;65.87
58739;BME280;44512;53.046;18.604;2024-01-06T02:28:58;101151.44;;;0.04;65.64
58739;BME280;44512;53.046;18.604;2024-01-06T02:39:27;101151.92;;;0.09;65.41
58739;BME280;44512;53.046;18.604;2024-01-06T02:49:55;101150.46;;;0.05;65.44
58739;BME280;44512;53.046;18.604;2024-01-06T03:00:23;101145.14;;;0.05;65.22
58739;BME280;44512;53.046;18.604;2024-01-06T03:10:51;101148.77;;;0.04;65.19
58739;BME280;44512;53.046;18.604;2024-01-06T03:21:20;101157.74;;;0.03;65.18
58739;BME280;44512;53.046;18.604;2024-01-06T03:31:49;101172.02;;;0.02;65.27
58739;BME280;44512;53.046;18.604;2024-01-06T03:42:17;101182.17;;;0.08;65.20
58739;BME280;44512;53.046;18.604;2024-01-06T03:52:45;101182.17;;;0.08;65.07
58739;BME280;44512;53.046;18.604;2024-01-06T04:03:14;101173.09;;;-0.01;65.27
58739;BME280;44512;53.046;18.604;2024-01-06T04:13:42;101180.71;;;0.04;65.14
58739;BME280;44512;53.046;18.604;2024-01-06T04:24:11;101189.41;;;-0.06;65.09
58739;BME280;44512;53.046;18.604;2024-01-06T04:34:39;101183.02;;;-0.14;65.03
58739;BME280;44512;53.046;18.604;2024-01-06T04:45:08;101197.40;;;-0.17;64.82
58739;BME280;44512;53.046;18.604;2024-01-06T04:55:36;101199.84;;;-0.14;64.63
58739;BME280;44512;53.046;18.604;2024-01-06T05:06:05;101202.63;;;-0.15;64.45
58739;BME280;44512;53.046;18.604;2024-01-06T05:16:33;101218.95;;;-0.09;64.30
58739;BME280;44512;53.046;18.604;2024-01-06T05:27:01;101220.63;;;-0.08;64.22
58739;BME280;44512;53.046;18.604;2024-01-06T05:37:31;101232.00;;;-0.06;64.18
58739;BME280;44512;53.046;18.604;2024-01-06T05:47:58;101244.45;;;-0.06;64.08
58739;BME280;44512;53.046;18.604;2024-01-06T05:58:27;101255.95;;;-0.06;63.90
58739;BME280;44512;53.046;18.604;2024-01-06T06:08:55;101256.69;;;-0.15;63.97
58739;BME280;44512;53.046;18.604;2024-01-06T06:19:24;101269.16;;;-0.04;63.91
58739;BME280;44512;53.046;18.604;2024-01-06T06:29:53;101296.62;;;-0.04;63.64
58739;BME280;44512;53.046;18.604;2024-01-06T06:40:20;101302.41;;;-0.10;63.71
58739;BME280;44512;53.046;18.604;2024-01-06T06:50:49;101312.80;;;-0.07;63.61
58739;BME280;44512;53.046;18.604;2024-01-06T07:01:17;101310.42;;;0.02;63.37
58739;BME280;44512;53.046;18.604;2024-01-06T07:11:46;101309.17;;;-0.06;63.67
58739;BME280;44512;53.046;18.604;2024-01-06T07:22:14;101326.39;;;0.02;63.64
58739;BME280;44512;53.046;18.604;2024-01-06T07:32:43;101329.77;;;0.04;63.65
58739;BME280;44512;53.046;18.604;2024-01-06T07:43:11;101357.13;;;0.06;63.80
58739;BME280;44512;53.046;18.604;2024-01-06T07:53:40;101365.49;;;0.12;63.72
58739;BME280;44512;53.046;18.604;2024-01-06T08:04:08;101376.98;;;0.13;63.55
58739;BME280;44512;53.046;18.604;2024-01-06T08:14:36;101400.91;;;0.02;63.64
58739;BME280;44512;53.046;18.604;2024-01-06T08:25:05;101412.77;;;0.09;63.75
58739;BME280;44512;53.046;18.604;2024-01-06T08:35:33;101438.93;;;0.15;63.68
58739;BME280;44512;53.046;18.604;2024-01-06T08:46:02;101442.84;;;0.22;63.60
58739;BME280;44512;53.046;18.604;2024-01-06T08:56:30;101459.41;;;0.25;63.51
58739;BME280;44512;53.046;18.604;2024-01-06T09:06:59;101482.10;;;0.31;63.36
58739;BME280;44512;53.046;18.604;2024-01-06T09:17:27;101500.83;;;0.30;63.17
58739;BME280;44512;53.046;18.604;2024-01-06T09:27:55;101499.77;;;0.32;62.96
58739;BME280;44512;53.046;18.604;2024-01-06T09:38:24;101498.08;;;0.31;62.96
58739;BME280;44512;53.046;18.604;2024-01-06T09:48:54;101508.73;;;0.31;62.71
58739;BME280;44512;53.046;18.604;2024-01-06T09:59:21;101506.79;;;0.33;62.41
58739;BME280;44512;53.046;18.604;2024-01-06T10:09:49;101512.63;;;0.38;61.98
58739;BME280;44512;53.046;18.604;2024-01-06T10:20:18;101523.11;;;0.29;61.67
58739;BME280;44512;53.046;18.604;2024-01-06T10:30:46;101519.64;;;0.39;61.30
58739;BME280;44512;53.046;18.604;2024-01-06T10:41:16;101510.46;;;0.43;60.84
58739;BME280;44512;53.046;18.604;2024-01-06T10:51:45;101506.14;;;0.54;60.68
58739;BME280;44512;53.046;18.604;2024-01-06T11:02:12;101506.48;;;0.49;60.45
58739;BME280;44512;53.046;18.604;2024-01-06T11:12:40;101508.55;;;0.57;60.13
58739;BME280;44512;53.046;18.604;2024-01-06T11:23:18;101503.48;;;0.54;60.05
58739;BME280;44512;53.046;18.604;2024-01-06T11:33:42;101506.62;;;0.59;59.93
58739;BME280;44512;53.046;18.604;2024-01-06T11:49:10;101522.97;;;0.54;59.73
58739;BME280;44512;53.046;18.604;2024-01-06T11:59:38;101522.84;;;0.56;59.46
58739;BME280;44512;53.046;18.604;2024-01-06T12:10:08;101536.41;;;0.53;59.23
58739;BME280;44512;53.046;18.604;2024-01-06T12:20:35;101539.66;;;0.56;58.85
58739;BME280;44512;53.046;18.604;2024-01-06T12:31:04;101536.29;;;0.54;58.65
58739;BME280;44512;53.046;18.604;2024-01-06T12:41:32;101532.44;;;0.58;58.53
58739;BME280;44512;53.046;18.604;2024-01-06T12:52:00;101544.40;;;0.53;58.29
58739;BME280;44512;53.046;18.604;2024-01-06T13:02:29;101537.35;;;0.51;58.12
58739;BME280;44512;53.046;18.604;2024-01-06T13:12:57;101557.38;;;0.57;57.82
58739;BME280;44512;53.046;18.604;2024-01-06T13:23:26;101568.87;;;0.58;57.10
58739;BME280;44512;53.046;18.604;2024-01-06T13:33:54;101574.43;;;0.55;56.46
58739;BME280;44512;53.046;18.604;2024-01-06T13:44:23;101578.07;;;0.54;56.11
58739;BME280;44512;53.046;18.604;2024-01-06T13:54:52;101587.29;;;0.61;55.56
58739;BME280;44512;53.046;18.604;2024-01-06T14:05:20;101597.38;;;0.44;55.53
58739;BME280;44512;53.046;18.604;2024-01-06T14:15:48;101602.58;;;0.46;55.49
58739;BME280;44512;53.046;18.604;2024-01-06T14:26:17;101624.53;;;0.49;55.65
58739;BME280;44512;53.046;18.604;2024-01-06T14:36:45;101639.66;;;0.49;55.73
58739;BME280;44512;53.046;18.604;2024-01-06T14:47:14;101644.37;;;0.45;55.96
58739;BME280;44512;53.046;18.604;2024-01-06T14:57:42;101647.78;;;0.47;56.15
58739;BME280;44512;53.046;18.604;2024-01-06T15:08:10;101667.30;;;0.35;56.41
58739;BME280;44512;53.046;18.604;2024-01-06T15:18:39;101675.30;;;0.35;56.71
58739;BME280;44512;53.046;18.604;2024-01-06T15:29:07;101688.27;;;0.40;56.48
58739;BME280;44512;53.046;18.604;2024-01-06T15:39:35;101692.76;;;0.39;56.30
58739;BME280;44512;53.046;18.604;2024-01-06T15:50:05;101709.47;;;0.41;56.29
58739;BME280;44512;53.046;18.604;2024-01-06T16:00:32;101715.16;;;0.37;56.39
58739;BME280;44512;53.046;18.604;2024-01-06T16:11:01;101717.70;;;0.38;56.48
58739;BME280;44512;53.046;18.604;2024-01-06T16:21:29;101737.59;;;0.45;56.57
58739;BME280;44512;53.046;18.604;2024-01-06T16:31:58;101738.77;;;0.41;56.67
58739;BME280;44512;53.046;18.604;2024-01-06T16:42:26;101742.73;;;0.36;56.91
58739;BME280;44512;53.046;18.604;2024-01-06T16:52:55;101743.08;;;0.31;56.79
58739;BME280;44512;53.046;18.604;2024-01-06T17:03:23;101763.50;;;0.31;56.67
58739;BME280;44512;53.046;18.604;2024-01-06T17:13:51;101773.74;;;0.24;56.39
58739;BME280;44512;53.046;18.604;2024-01-06T17:24:20;101785.99;;;0.14;56.52
58739;BME280;44512;53.046;18.604;2024-01-06T17:34:48;101820.41;;;0.17;56.40
58739;BME280;44512;53.046;18.604;2024-01-06T17:45:17;101814.24;;;0.16;56.20
58739;BME280;44512;53.046;18.604;2024-01-06T17:55:45;101813.79;;;0.10;55.94
58739;BME280;44512;53.046;18.604;2024-01-06T18:06:14;101845.55;;;0.13;55.69
58739;BME280;44512;53.046;18.604;2024-01-06T18:16:42;101855.77;;;0.06;55.73
58739;BME280;44512;53.046;18.604;2024-01-06T18:27:10;101871.82;;;0.05;55.17
58739;BME280;44512;53.046;18.604;2024-01-06T18:37:39;101877.98;;;-0.08;54.95
58739;BME280;44512;53.046;18.604;2024-01-06T18:48:07;101881.61;;;-0.09;54.62
58739;BME280;44512;53.046;18.604;2024-01-06T18:58:36;101892.51;;;-0.26;54.37
58739;BME280;44512;53.046;18.604;2024-01-06T19:09:04;101890.07;;;-0.29;54.15
58739;BME280;44512;53.046;18.604;2024-01-06T19:19:34;101900.76;;;-0.43;54.37
58739;BME280;44512;53.046;18.604;2024-01-06T19:30:02;101905.89;;;-0.40;54.12
58739;BME280;44512;53.046;18.604;2024-01-06T19:40:30;101917.53;;;-0.56;54.00
58739;BME280;44512;53.046;18.604;2024-01-06T19:50:58;101920.19;;;-0.56;53.99
58739;BME280;44512;53.046;18.604;2024-01-06T20:01:26;101927.50;;;-0.59;53.73
58739;BME280;44512;53.046;18.604;2024-01-06T20:11:55;101922.77;;;-0.68;53.76
58739;BME280;44512;53.046;18.604;2024-01-06T20:22:23;101930.85;;;-0.70;53.68
58739;BME280;44512;53.046;18.604;2024-01-06T20:32:52;101938.85;;;-0.84;53.85
58739;BME280;44512;53.046;18.604;2024-01-06T20:43:20;101937.33;;;-0.88;54.12
58739;BME280;44512;53.046;18.604;2024-01-06T20:53:49;101935.06;;;-0.94;54.36
58739;BME280;44512;53.046;18.604;2024-01-06T21:04:17;101935.84;;;-0.92;54.53
58739;BME280;44512;53.046;18.604;2024-01-06T21:14:46;101943.42;;;-1.00;54.77
58739;BME280;44512;53.046;18.604;2024-01-06T21:25:21;101937.72;;;-1.09;54.86
58739;BME280;44512;53.046;18.604;2024-01-06T21:35:43;101939.27;;;-1.19;54.58
58739;BME280;44512;53.046;18.604;2024-01-06T21:46:11;101948.75;;;-1.29;54.74
58739;BME280;44512;53.046;18.604;2024-01-06T21:56:39;101936.21;;;-1.27;54.59
58739;BME280;44512;53.046;18.604;2024-01-06T22:07:08;101950.46;;;-1.28;54.85
58739;BME280;44512;53.046;18.604;2024-01-06T22:17:36;101962.78;;;-1.27;55.07
58739;BME280;44512;53.046;18.604;2024-01-06T22:28:05;101951.10;;;-1.24;54.90
58739;BME280;44512;53.046;18.604;2024-01-06T22:38:33;101967.15;;;-1.26;54.81
58739;BME280;44512;53.046;18.604;2024-01-06T22:49:02;101962.61;;;-1.24;54.53
58739;BME280;44512;53.046;18.604;2024-01-06T22:59:30;101976.99;;;-1.42;54.46
58739;BME280;44512;53.046;18.604;2024-01-06T23:09:59;101992.90;;;-1.57;54.54
58739;BME280;44512;53.046;18.604;2024-01-06T23:20:27;102007.66;;;-1.67;54.54
58739;BME280;44512;53.046;18.604;2024-01-06T23:30:55;102024.05;;;-1.74;54.56
58739;BME280;44512;53.046;18.604;2024-01-06T23:41:24;102016.77;;;-1.87;54.58
58739;BME280;44512;53.046;18.604;2024-01-06T23:51:52;102021.35;;;-2.04;54.51
